sensor_id;sensor_type;location;lat;lon;timestamp;pressure;altitude;pressure_sealevel;temperature;humidity
43488;BME280;29078;41.932;25.554;2022-07-23T00:01:29;99583.47;;;27.35;34.58
43488;BME280;29078;41.932;25.554;2022-07-23T00:03:54;99566.28;;;27.21;34.67
43488;BME280;29078;41.932;25.554;2022-07-23T00:06:21;99523.00;;;26.82;34.75
43488;BME280;29078;41.932;25.554;2022-07-23T00:08:46;99553.25;;;26.94;34.96
43488;BME280;29078;41.932;25.554;2022-07-23T00:11:12;99621.63;;;27.44;35.23
43488;BME280;29078;41.932;25.554;2022-07-23T00:13:37;99549.72;;;26.94;35.10
43488;BME280;29078;41.932;25.554;2022-07-23T00:16:03;99521.09;;;26.82;35.15
43488;BME280;29078;41.932;25.554;2022-07-23T00:18:28;99488.56;;;26.53;35.36
43488;BME280;29078;41.932;25.554;2022-07-23T00:20:54;99616.31;;;27.34;35.28
43488;BME280;29078;41.932;25.554;2022-07-23T00:23:19;99558.63;;;26.99;35.39
43488;BME280;29078;41.932;25.554;2022-07-23T00:25:45;99504.81;;;26.53;35.17
43488;BME280;29078;41.932;25.554;2022-07-23T00:28:11;99617.91;;;27.35;35.38
43488;BME280;29078;41.932;25.554;2022-07-23T00:30:37;99615.25;;;27.30;35.39
43488;BME280;29078;41.932;25.554;2022-07-23T00:33:05;99601.72;;;27.01;35.30
43488;BME280;29078;41.932;25.554;2022-07-23T00:35:33;99619.94;;;27.24;35.43
43488;BME280;29078;41.932;25.554;2022-07-23T00:38:00;99572.28;;;26.84;35.49
43488;BME280;29078;41.932;25.554;2022-07-23T00:40:26;99612.13;;;27.17;35.51
43488;BME280;29078;41.932;25.554;2022-07-23T00:42:52;99526.69;;;26.62;35.39
43488;BME280;29078;41.932;25.554;2022-07-23T00:45:18;99508.91;;;26.51;35.50
43488;BME280;29078;41.932;25.554;2022-07-23T00:47:43;99555.00;;;26.75;35.65
43488;BME280;29078;41.932;25.554;2022-07-23T00:50:10;99497.34;;;26.40;35.79
43488;BME280;29078;41.932;25.554;2022-07-23T00:52:36;99615.47;;;27.09;35.78
43488;BME280;29078;41.932;25.554;2022-07-23T00:55:04;99500.91;;;26.36;35.87
43488;BME280;29078;41.932;25.554;2022-07-23T00:57:30;99530.00;;;26.54;35.85
43488;BME280;29078;41.932;25.554;2022-07-23T00:59:55;99483.63;;;26.26;35.88
43488;BME280;29078;41.932;25.554;2022-07-23T01:02:21;99482.91;;;26.11;35.88
43488;BME280;29078;41.932;25.554;2022-07-23T01:04:47;99572.50;;;26.53;36.15
43488;BME280;29078;41.932;25.554;2022-07-23T01:07:12;99572.06;;;26.41;36.07
43488;BME280;29078;41.932;25.554;2022-07-23T01:09:38;99561.44;;;26.06;37.00
43488;BME280;29078;41.932;25.554;2022-07-23T01:12:04;99477.63;;;25.31;37.06
43488;BME280;29078;41.932;25.554;2022-07-23T01:14:30;99490.88;;;25.27;37.00
43488;BME280;29078;41.932;25.554;2022-07-23T01:16:55;99365.47;;;24.08;37.09
43488;BME280;29078;41.932;25.554;2022-07-23T01:19:21;99529.19;;;25.45;37.44
43488;BME280;29078;41.932;25.554;2022-07-23T01:21:49;99590.72;;;25.88;37.30
43488;BME280;29078;41.932;25.554;2022-07-23T01:24:15;99602.66;;;25.77;37.54
43488;BME280;29078;41.932;25.554;2022-07-23T01:26:45;99585.13;;;25.59;37.76
43488;BME280;29078;41.932;25.554;2022-07-23T01:29:11;99622.63;;;25.91;37.48
43488;BME280;29078;41.932;25.554;2022-07-23T01:31:37;99583.75;;;25.62;37.86
43488;BME280;29078;41.932;25.554;2022-07-23T01:34:03;99496.59;;;25.00;37.65
43488;BME280;29078;41.932;25.554;2022-07-23T01:36:29;99337.16;;;23.90;38.10
43488;BME280;29078;41.932;25.554;2022-07-23T01:38:54;99601.13;;;25.41;37.69
43488;BME280;29078;41.932;25.554;2022-07-23T01:41:20;99600.56;;;25.49;37.89
43488;BME280;29078;41.932;25.554;2022-07-23T01:43:45;99597.56;;;25.50;37.98
43488;BME280;29078;41.932;25.554;2022-07-23T01:46:12;99623.47;;;25.77;37.43
43488;BME280;29078;41.932;25.554;2022-07-23T01:48:38;99629.69;;;25.77;37.92
43488;BME280;29078;41.932;25.554;2022-07-23T01:51:03;99405.13;;;24.33;37.63
43488;BME280;29078;41.932;25.554;2022-07-23T01:53:29;99326.06;;;23.66;37.96
43488;BME280;29078;41.932;25.554;2022-07-23T01:55:57;99296.13;;;23.53;37.88
43488;BME280;29078;41.932;25.554;2022-07-23T01:58:22;99544.69;;;24.98;37.88
43488;BME280;29078;41.932;25.554;2022-07-23T02:00:47;99576.28;;;25.28;37.89
43488;BME280;29078;41.932;25.554;2022-07-23T02:03:13;99559.53;;;25.16;37.94
43488;BME280;29078;41.932;25.554;2022-07-23T02:05:38;99596.25;;;25.38;37.98
43488;BME280;29078;41.932;25.554;2022-07-23T02:08:04;99614.88;;;25.54;37.67
43488;BME280;29078;41.932;25.554;2022-07-23T02:10:30;99461.53;;;24.55;37.63
43488;BME280;29078;41.932;25.554;2022-07-23T02:12:55;99465.03;;;24.50;37.92
43488;BME280;29078;41.932;25.554;2022-07-23T02:15:21;99511.47;;;24.67;38.11
43488;BME280;29078;41.932;25.554;2022-07-23T02:17:46;99594.38;;;25.28;37.97
43488;BME280;29078;41.932;25.554;2022-07-23T02:20:12;99534.41;;;25.06;37.75
43488;BME280;29078;41.932;25.554;2022-07-23T02:22:38;99598.97;;;25.27;37.65
43488;BME280;29078;41.932;25.554;2022-07-23T02:25:05;99523.34;;;24.87;37.77
43488;BME280;29078;41.932;25.554;2022-07-23T02:27:31;99569.53;;;25.16;37.80
43488;BME280;29078;41.932;25.554;2022-07-23T02:29:56;99550.91;;;24.99;37.98
43488;BME280;29078;41.932;25.554;2022-07-23T02:32:23;99575.22;;;25.04;37.84
43488;BME280;29078;41.932;25.554;2022-07-23T02:34:49;99534.16;;;24.71;37.84
43488;BME280;29078;41.932;25.554;2022-07-23T02:37:14;99488.22;;;24.26;37.87
43488;BME280;29078;41.932;25.554;2022-07-23T02:39:40;99583.03;;;24.80;38.12
43488;BME280;29078;41.932;25.554;2022-07-23T02:42:05;99607.34;;;24.90;37.96
43488;BME280;29078;41.932;25.554;2022-07-23T02:44:31;99566.81;;;24.65;37.79
43488;BME280;29078;41.932;25.554;2022-07-23T02:46:56;99629.50;;;25.18;37.62
43488;BME280;29078;41.932;25.554;2022-07-23T02:49:23;99641.13;;;25.03;37.85
43488;BME280;29078;41.932;25.554;2022-07-23T02:51:48;99651.94;;;25.28;37.47
43488;BME280;29078;41.932;25.554;2022-07-23T02:54:14;99536.56;;;24.48;37.83
43488;BME280;29078;41.932;25.554;2022-07-23T02:56:39;99570.06;;;24.57;37.93
43488;BME280;29078;41.932;25.554;2022-07-23T02:59:05;99662.47;;;25.05;37.91
43488;BME280;29078;41.932;25.554;2022-07-23T03:01:30;99640.31;;;24.97;37.94
43488;BME280;29078;41.932;25.554;2022-07-23T03:03:55;99469.09;;;23.44;38.41
43488;BME280;29078;41.932;25.554;2022-07-23T03:06:21;99635.66;;;24.57;38.35
43488;BME280;29078;41.932;25.554;2022-07-23T03:08:46;99636.22;;;24.59;38.52
43488;BME280;29078;41.932;25.554;2022-07-23T03:11:12;99546.69;;;23.95;38.52
43488;BME280;29078;41.932;25.554;2022-07-23T03:13:38;99643.69;;;24.37;38.83
43488;BME280;29078;41.932;25.554;2022-07-23T03:16:04;99551.72;;;23.76;38.95
43488;BME280;29078;41.932;25.554;2022-07-23T03:18:29;99614.72;;;24.12;38.95
43488;BME280;29078;41.932;25.554;2022-07-23T03:20:55;99383.63;;;22.30;39.32
43488;BME280;29078;41.932;25.554;2022-07-23T03:23:20;99386.84;;;22.69;39.18
43488;BME280;29078;41.932;25.554;2022-07-23T03:25:46;99674.47;;;24.46;39.19
43488;BME280;29078;41.932;25.554;2022-07-23T03:28:15;99666.63;;;24.39;39.22
43488;BME280;29078;41.932;25.554;2022-07-23T03:30:44;99629.00;;;24.07;39.02
43488;BME280;29078;41.932;25.554;2022-07-23T03:33:14;99654.38;;;24.12;39.57
43488;BME280;29078;41.932;25.554;2022-07-23T03:35:42;99664.97;;;24.28;39.17
43488;BME280;29078;41.932;25.554;2022-07-23T03:38:07;99577.34;;;23.73;39.33
43488;BME280;29078;41.932;25.554;2022-07-23T03:40:33;99588.44;;;23.82;39.43
43488;BME280;29078;41.932;25.554;2022-07-23T03:42:58;99583.28;;;23.75;39.51
43488;BME280;29078;41.932;25.554;2022-07-23T03:45:23;99535.91;;;23.37;39.58
43488;BME280;29078;41.932;25.554;2022-07-23T03:47:49;99685.44;;;24.24;39.65
43488;BME280;29078;41.932;25.554;2022-07-23T03:50:14;99554.66;;;23.64;39.46
43488;BME280;29078;41.932;25.554;2022-07-23T03:52:40;99633.06;;;24.15;39.17
43488;BME280;29078;41.932;25.554;2022-07-23T03:55:05;99626.84;;;24.09;39.48
43488;BME280;29078;41.932;25.554;2022-07-23T03:57:31;99656.91;;;24.33;39.43
43488;BME280;29078;41.932;25.554;2022-07-23T03:59:57;99564.34;;;23.60;39.57
43488;BME280;29078;41.932;25.554;2022-07-23T04:02:22;99620.06;;;23.97;39.43
43488;BME280;29078;41.932;25.554;2022-07-23T04:04:48;99541.59;;;23.46;39.56
43488;BME280;29078;41.932;25.554;2022-07-23T04:07:14;99670.31;;;24.18;39.63
43488;BME280;29078;41.932;25.554;2022-07-23T04:09:42;99562.44;;;23.56;39.60
43488;BME280;29078;41.932;25.554;2022-07-23T04:12:08;99617.56;;;23.80;39.76
43488;BME280;29078;41.932;25.554;2022-07-23T04:14:33;99611.66;;;23.88;39.74
43488;BME280;29078;41.932;25.554;2022-07-23T04:16:59;99585.78;;;23.87;39.65
43488;BME280;29078;41.932;25.554;2022-07-23T04:19:25;99649.81;;;24.22;39.69
43488;BME280;29078;41.932;25.554;2022-07-23T04:21:50;99680.69;;;24.52;39.56
43488;BME280;29078;41.932;25.554;2022-07-23T04:24:16;99575.56;;;23.94;39.58
43488;BME280;29078;41.932;25.554;2022-07-23T04:26:41;99617.72;;;24.26;39.35
43488;BME280;29078;41.932;25.554;2022-07-23T04:29:07;99692.91;;;24.69;39.57
43488;BME280;29078;41.932;25.554;2022-07-23T04:31:32;99563.44;;;24.02;39.78
43488;BME280;29078;41.932;25.554;2022-07-23T04:33:58;99575.59;;;24.04;39.75
43488;BME280;29078;41.932;25.554;2022-07-23T04:36:23;99525.84;;;23.75;39.60
43488;BME280;29078;41.932;25.554;2022-07-23T04:38:48;99581.28;;;24.23;39.45
43488;BME280;29078;41.932;25.554;2022-07-23T04:41:14;99664.03;;;24.80;39.43
43488;BME280;29078;41.932;25.554;2022-07-23T04:43:39;99572.91;;;24.15;39.67
43488;BME280;29078;41.932;25.554;2022-07-23T04:46:05;99697.03;;;24.97;39.58
43488;BME280;29078;41.932;25.554;2022-07-23T04:48:31;99570.81;;;24.32;39.64
43488;BME280;29078;41.932;25.554;2022-07-23T04:50:56;99638.94;;;24.75;39.81
43488;BME280;29078;41.932;25.554;2022-07-23T04:53:22;99619.19;;;24.54;39.66
43488;BME280;29078;41.932;25.554;2022-07-23T04:55:48;99560.59;;;24.49;39.42
43488;BME280;29078;41.932;25.554;2022-07-23T04:58:13;99625.97;;;24.87;39.33
43488;BME280;29078;41.932;25.554;2022-07-23T05:00:38;99652.72;;;24.93;39.61
43488;BME280;29078;41.932;25.554;2022-07-23T05:03:04;99650.31;;;25.02;39.77
43488;BME280;29078;41.932;25.554;2022-07-23T05:05:29;99666.53;;;25.17;39.66
43488;BME280;29078;41.932;25.554;2022-07-23T05:07:55;99563.00;;;24.51;39.56
43488;BME280;29078;41.932;25.554;2022-07-23T05:10:20;99654.63;;;25.18;39.64
43488;BME280;29078;41.932;25.554;2022-07-23T05:12:45;99633.31;;;25.27;39.44
43488;BME280;29078;41.932;25.554;2022-07-23T05:15:11;99557.09;;;24.89;39.33
43488;BME280;29078;41.932;25.554;2022-07-23T05:17:36;99593.56;;;25.17;38.98
43488;BME280;29078;41.932;25.554;2022-07-23T05:20:02;99412.41;;;24.02;39.27
43488;BME280;29078;41.932;25.554;2022-07-23T05:22:28;99681.34;;;25.81;38.87
43488;BME280;29078;41.932;25.554;2022-07-23T05:24:53;99610.59;;;25.28;38.99
43488;BME280;29078;41.932;25.554;2022-07-23T05:27:19;99687.84;;;25.85;39.04
43488;BME280;29078;41.932;25.554;2022-07-23T05:29:44;99564.94;;;25.01;38.75
43488;BME280;29078;41.932;25.554;2022-07-23T05:32:10;99695.91;;;26.00;38.49
43488;BME280;29078;41.932;25.554;2022-07-23T05:34:35;99597.59;;;25.40;38.56
43488;BME280;29078;41.932;25.554;2022-07-23T05:37:00;99587.31;;;25.47;38.46
43488;BME280;29078;41.932;25.554;2022-07-23T05:39:26;99624.84;;;25.74;38.65
43488;BME280;29078;41.932;25.554;2022-07-23T05:41:51;99591.06;;;25.56;38.49
43488;BME280;29078;41.932;25.554;2022-07-23T05:44:17;99692.81;;;26.32;38.34
43488;BME280;29078;41.932;25.554;2022-07-23T05:46:42;99645.31;;;26.01;38.34
43488;BME280;29078;41.932;25.554;2022-07-23T05:49:08;99643.94;;;26.08;38.13
43488;BME280;29078;41.932;25.554;2022-07-23T05:51:33;99688.44;;;26.51;38.07
43488;BME280;29078;41.932;25.554;2022-07-23T05:53:59;99584.50;;;25.88;37.84
43488;BME280;29078;41.932;25.554;2022-07-23T05:56:24;99622.47;;;26.27;37.84
43488;BME280;29078;41.932;25.554;2022-07-23T05:58:49;99661.38;;;26.46;37.71
43488;BME280;29078;41.932;25.554;2022-07-23T06:01:15;99635.50;;;26.20;37.62
43488;BME280;29078;41.932;25.554;2022-07-23T06:03:40;99673.97;;;26.66;37.37
43488;BME280;29078;41.932;25.554;2022-07-23T06:06:06;99627.56;;;26.39;37.40
43488;BME280;29078;41.932;25.554;2022-07-23T06:08:31;99525.53;;;25.85;37.21
43488;BME280;29078;41.932;25.554;2022-07-23T06:10:57;99689.00;;;26.92;37.01
43488;BME280;29078;41.932;25.554;2022-07-23T06:13:22;99608.31;;;26.45;37.01
43488;BME280;29078;41.932;25.554;2022-07-23T06:15:48;99623.03;;;26.68;37.16
43488;BME280;29078;41.932;25.554;2022-07-23T06:18:13;99560.75;;;26.34;36.95
43488;BME280;29078;41.932;25.554;2022-07-23T06:20:39;99589.28;;;26.55;36.49
43488;BME280;29078;41.932;25.554;2022-07-23T06:23:04;99569.19;;;26.62;36.39
43488;BME280;29078;41.932;25.554;2022-07-23T06:25:29;99641.47;;;27.10;35.97
43488;BME280;29078;41.932;25.554;2022-07-23T06:27:55;99676.06;;;27.52;35.79
43488;BME280;29078;41.932;25.554;2022-07-23T06:30:21;99683.41;;;27.52;35.80
43488;BME280;29078;41.932;25.554;2022-07-23T06:32:47;99591.06;;;27.09;35.18
43488;BME280;29078;41.932;25.554;2022-07-23T06:35:12;99614.44;;;27.29;35.19
43488;BME280;29078;41.932;25.554;2022-07-23T06:37:38;99632.59;;;27.63;34.96
43488;BME280;29078;41.932;25.554;2022-07-23T06:40:04;99628.53;;;27.60;34.75
43488;BME280;29078;41.932;25.554;2022-07-23T06:42:29;99568.13;;;27.26;34.70
43488;BME280;29078;41.932;25.554;2022-07-23T06:44:55;99592.81;;;27.53;34.52
43488;BME280;29078;41.932;25.554;2022-07-23T06:47:20;99445.38;;;26.67;34.38
43488;BME280;29078;41.932;25.554;2022-07-23T06:49:46;99615.72;;;27.90;34.25
43488;BME280;29078;41.932;25.554;2022-07-23T06:52:11;99631.59;;;28.01;34.04
43488;BME280;29078;41.932;25.554;2022-07-23T06:54:37;99689.59;;;28.34;33.94
43488;BME280;29078;41.932;25.554;2022-07-23T06:57:02;99647.91;;;28.20;34.07
43488;BME280;29078;41.932;25.554;2022-07-23T06:59:28;99514.19;;;27.48;33.69
43488;BME280;29078;41.932;25.554;2022-07-23T07:01:53;99584.34;;;28.02;33.66
43488;BME280;29078;41.932;25.554;2022-07-23T07:04:19;99670.16;;;28.65;33.40
43488;BME280;29078;41.932;25.554;2022-07-23T07:06:44;99565.72;;;27.96;33.42
43488;BME280;29078;41.932;25.554;2022-07-23T07:09:10;99611.88;;;28.38;33.37
43488;BME280;29078;41.932;25.554;2022-07-23T07:11:35;99663.19;;;28.77;32.98
43488;BME280;29078;41.932;25.554;2022-07-23T07:14:00;99576.94;;;28.32;33.03
43488;BME280;29078;41.932;25.554;2022-07-23T07:16:26;99538.88;;;28.13;32.95
43488;BME280;29078;41.932;25.554;2022-07-23T07:18:51;99490.75;;;28.00;32.39
43488;BME280;29078;41.932;25.554;2022-07-23T07:21:17;99583.25;;;28.46;32.68
43488;BME280;29078;41.932;25.554;2022-07-23T07:23:42;99580.50;;;28.65;32.34
43488;BME280;29078;41.932;25.554;2022-07-23T07:26:07;99650.91;;;29.18;32.19
43488;BME280;29078;41.932;25.554;2022-07-23T07:28:33;99644.69;;;29.31;32.06
43488;BME280;29078;41.932;25.554;2022-07-23T07:30:58;99583.25;;;28.97;31.90
43488;BME280;29078;41.932;25.554;2022-07-23T07:33:24;99560.28;;;28.90;31.87
43488;BME280;29078;41.932;25.554;2022-07-23T07:35:49;99328.75;;;27.44;31.63
43488;BME280;29078;41.932;25.554;2022-07-23T07:38:15;99514.81;;;28.76;31.42
43488;BME280;29078;41.932;25.554;2022-07-23T07:40:40;99540.63;;;29.12;31.77
43488;BME280;29078;41.932;25.554;2022-07-23T07:43:06;99544.84;;;29.18;31.51
43488;BME280;29078;41.932;25.554;2022-07-23T07:45:31;99540.41;;;29.22;31.50
43488;BME280;29078;41.932;25.554;2022-07-23T07:47:57;99579.97;;;29.60;31.29
43488;BME280;29078;41.932;25.554;2022-07-23T07:50:23;99597.19;;;29.69;31.46
43488;BME280;29078;41.932;25.554;2022-07-23T07:52:48;99603.53;;;29.92;31.49
43488;BME280;29078;41.932;25.554;2022-07-23T07:55:14;99551.97;;;29.73;31.58
43488;BME280;29078;41.932;25.554;2022-07-23T07:57:39;99539.97;;;29.75;31.14
43488;BME280;29078;41.932;25.554;2022-07-23T08:00:07;99597.97;;;30.25;30.56
43488;BME280;29078;41.932;25.554;2022-07-23T08:02:53;99628.19;;;30.51;30.42
43488;BME280;29078;41.932;25.554;2022-07-23T08:05:23;99596.25;;;30.29;30.62
43488;BME280;29078;41.932;25.554;2022-07-23T08:07:49;99624.03;;;30.67;30.47
43488;BME280;29078;41.932;25.554;2022-07-23T08:10:14;99628.72;;;30.75;30.25
43488;BME280;29078;41.932;25.554;2022-07-23T08:12:45;99589.41;;;30.54;30.54
43488;BME280;29078;41.932;25.554;2022-07-23T08:15:12;99621.78;;;30.69;30.55
43488;BME280;29078;41.932;25.554;2022-07-23T08:17:37;99623.72;;;30.91;30.85
43488;BME280;29078;41.932;25.554;2022-07-23T08:20:07;99620.91;;;31.05;30.66
43488;BME280;29078;41.932;25.554;2022-07-23T08:22:49;99613.00;;;31.17;30.55
43488;BME280;29078;41.932;25.554;2022-07-23T08:25:19;99606.19;;;31.14;30.45
43488;BME280;29078;41.932;25.554;2022-07-23T08:27:44;99516.16;;;30.75;30.28
43488;BME280;29078;41.932;25.554;2022-07-23T08:30:10;99615.41;;;31.49;30.00
43488;BME280;29078;41.932;25.554;2022-07-23T08:35:15;99616.78;;;31.69;29.45
43488;BME280;29078;41.932;25.554;2022-07-23T08:37:40;99561.47;;;31.46;29.05
43488;BME280;29078;41.932;25.554;2022-07-23T08:40:06;99615.09;;;31.90;28.70
43488;BME280;29078;41.932;25.554;2022-07-23T08:42:32;99555.38;;;31.49;28.53
43488;BME280;29078;41.932;25.554;2022-07-23T08:45:02;99490.13;;;31.22;28.50
43488;BME280;29078;41.932;25.554;2022-07-23T08:47:29;99350.44;;;30.54;27.86
43488;BME280;29078;41.932;25.554;2022-07-23T08:49:56;99554.38;;;31.85;27.81
43488;BME280;29078;41.932;25.554;2022-07-23T08:52:22;99585.00;;;32.30;27.70
43488;BME280;29078;41.932;25.554;2022-07-23T08:54:48;99597.38;;;32.45;27.54
43488;BME280;29078;41.932;25.554;2022-07-23T08:57:14;99582.28;;;32.39;27.53
43488;BME280;29078;41.932;25.554;2022-07-23T08:59:40;99493.97;;;31.86;27.53
43488;BME280;29078;41.932;25.554;2022-07-23T09:02:05;99525.84;;;32.34;27.50
43488;BME280;29078;41.932;25.554;2022-07-23T09:04:31;99576.00;;;32.90;27.58
43488;BME280;29078;41.932;25.554;2022-07-23T09:06:57;99461.88;;;32.35;27.54
43488;BME280;29078;41.932;25.554;2022-07-23T09:09:23;99566.41;;;33.22;27.23
43488;BME280;29078;41.932;25.554;2022-07-23T09:12:08;99586.31;;;33.48;27.16
43488;BME280;29078;41.932;25.554;2022-07-23T09:17:40;99581.81;;;33.82;26.63
43488;BME280;29078;41.932;25.554;2022-07-23T09:20:09;99582.97;;;34.02;26.17
43488;BME280;29078;41.932;25.554;2022-07-23T09:22:35;99499.22;;;33.71;26.07
43488;BME280;29078;41.932;25.554;2022-07-23T09:27:55;99560.47;;;34.59;25.81
43488;BME280;29078;41.932;25.554;2022-07-23T09:30:23;99565.66;;;34.72;24.82
43488;BME280;29078;41.932;25.554;2022-07-23T09:33:07;99569.50;;;34.92;24.33
43488;BME280;29078;41.932;25.554;2022-07-23T09:38:16;99549.09;;;35.14;24.61
43488;BME280;29078;41.932;25.554;2022-07-23T09:40:41;99511.50;;;35.15;24.36
43488;BME280;29078;41.932;25.554;2022-07-23T09:43:07;99512.97;;;35.24;23.67
43488;BME280;29078;41.932;25.554;2022-07-23T09:45:32;99461.97;;;35.23;23.64
43488;BME280;29078;41.932;25.554;2022-07-23T09:48:12;99495.00;;;35.63;23.35
43488;BME280;29078;41.932;25.554;2022-07-23T09:50:38;99542.00;;;36.11;22.85
43488;BME280;29078;41.932;25.554;2022-07-23T09:53:04;99554.66;;;36.40;22.17
43488;BME280;29078;41.932;25.554;2022-07-23T09:55:34;99505.75;;;36.33;22.03
43488;BME280;29078;41.932;25.554;2022-07-23T09:58:05;99427.66;;;35.94;21.46
43488;BME280;29078;41.932;25.554;2022-07-23T10:00:32;99548.59;;;36.90;20.88
43488;BME280;29078;41.932;25.554;2022-07-23T10:03:00;99562.63;;;37.01;20.48
43488;BME280;29078;41.932;25.554;2022-07-23T10:05:27;99515.03;;;37.00;20.36
43488;BME280;29078;41.932;25.554;2022-07-23T10:07:54;99537.91;;;37.32;20.12
43488;BME280;29078;41.932;25.554;2022-07-23T10:10:21;99539.84;;;37.47;19.87
43488;BME280;29078;41.932;25.554;2022-07-23T10:12:47;99538.41;;;37.53;20.07
43488;BME280;29078;41.932;25.554;2022-07-23T10:15:16;99500.06;;;37.29;19.90
43488;BME280;29078;41.932;25.554;2022-07-23T10:17:41;99442.94;;;37.10;19.75
43488;BME280;29078;41.932;25.554;2022-07-23T10:20:07;99525.38;;;37.85;19.55
43488;BME280;29078;41.932;25.554;2022-07-23T10:22:39;99498.97;;;37.84;19.45
43488;BME280;29078;41.932;25.554;2022-07-23T10:33:12;99513.25;;;38.44;18.75
43488;BME280;29078;41.932;25.554;2022-07-23T10:36:03;99507.81;;;38.67;18.11
43488;BME280;29078;41.932;25.554;2022-07-23T10:39:04;99507.38;;;38.88;18.87
43488;BME280;29078;41.932;25.554;2022-07-23T10:41:40;99406.88;;;38.47;18.17
43488;BME280;29078;41.932;25.554;2022-07-23T10:44:10;99493.16;;;39.09;17.99
43488;BME280;29078;41.932;25.554;2022-07-23T10:46:46;99487.38;;;39.18;17.60
43488;BME280;29078;41.932;25.554;2022-07-23T10:49:23;99407.53;;;38.83;17.98
43488;BME280;29078;41.932;25.554;2022-07-23T10:52:24;99482.72;;;39.48;17.42
43488;BME280;29078;41.932;25.554;2022-07-23T10:57:27;99407.44;;;39.28;17.72
43488;BME280;29078;41.932;25.554;2022-07-23T11:02:34;99406.38;;;39.63;17.62
43488;BME280;29078;41.932;25.554;2022-07-23T11:05:04;99453.94;;;40.09;17.09
43488;BME280;29078;41.932;25.554;2022-07-23T11:07:29;99459.31;;;40.28;16.92
43488;BME280;29078;41.932;25.554;2022-07-23T11:09:57;99456.06;;;40.19;17.01
43488;BME280;29078;41.932;25.554;2022-07-23T11:17:38;99449.28;;;40.50;16.63
43488;BME280;29078;41.932;25.554;2022-07-23T11:22:37;99426.00;;;40.55;16.42
43488;BME280;29078;41.932;25.554;2022-07-23T11:25:04;99445.19;;;40.78;16.16
43488;BME280;29078;41.932;25.554;2022-07-23T11:27:38;99445.00;;;40.97;16.34
43488;BME280;29078;41.932;25.554;2022-07-23T11:30:06;99416.63;;;40.70;16.17
43488;BME280;29078;41.932;25.554;2022-07-23T11:32:37;99405.69;;;40.81;16.06
43488;BME280;29078;41.932;25.554;2022-07-23T11:35:19;99443.84;;;41.02;15.84
43488;BME280;29078;41.932;25.554;2022-07-23T11:37:46;99451.06;;;41.17;16.06
43488;BME280;29078;41.932;25.554;2022-07-23T11:40:15;99439.88;;;41.03;15.91
43488;BME280;29078;41.932;25.554;2022-07-23T11:42:57;99405.41;;;40.97;15.88
43488;BME280;29078;41.932;25.554;2022-07-23T11:45:24;99415.00;;;41.10;16.09
43488;BME280;29078;41.932;25.554;2022-07-23T11:47:50;99419.50;;;41.29;15.63
43488;BME280;29078;41.932;25.554;2022-07-23T11:50:16;99432.69;;;41.53;15.39
43488;BME280;29078;41.932;25.554;2022-07-23T11:52:41;99376.25;;;41.17;15.80
43488;BME280;29078;41.932;25.554;2022-07-23T11:55:09;99436.25;;;41.53;15.35
43488;BME280;29078;41.932;25.554;2022-07-23T11:57:38;99430.72;;;41.57;15.67
43488;BME280;29078;41.932;25.554;2022-07-23T12:00:06;99419.75;;;41.68;15.80
43488;BME280;29078;41.932;25.554;2022-07-23T12:02:33;99325.59;;;41.16;15.35
43488;BME280;29078;41.932;25.554;2022-07-23T12:04:59;99310.13;;;41.05;15.23
43488;BME280;29078;41.932;25.554;2022-07-23T12:07:31;99421.75;;;41.78;15.35
43488;BME280;29078;41.932;25.554;2022-07-23T12:10:09;99420.59;;;41.82;15.22
43488;BME280;29078;41.932;25.554;2022-07-23T12:12:41;99320.09;;;41.20;15.22
43488;BME280;29078;41.932;25.554;2022-07-23T12:15:07;99368.25;;;41.63;15.69
43488;BME280;29078;41.932;25.554;2022-07-23T12:17:36;99378.97;;;41.75;15.75
43488;BME280;29078;41.932;25.554;2022-07-23T12:20:04;99337.28;;;41.61;15.41
43488;BME280;29078;41.932;25.554;2022-07-23T12:22:40;99390.19;;;42.14;15.16
43488;BME280;29078;41.932;25.554;2022-07-23T12:25:09;99377.84;;;42.01;15.79
43488;BME280;29078;41.932;25.554;2022-07-23T12:27:35;99386.56;;;42.00;15.46
43488;BME280;29078;41.932;25.554;2022-07-23T12:30:31;99303.22;;;41.53;15.35
43488;BME280;29078;41.932;25.554;2022-07-23T12:32:58;99405.63;;;42.12;15.49
43488;BME280;29078;41.932;25.554;2022-07-23T12:35:31;99373.06;;;41.91;14.70
43488;BME280;29078;41.932;25.554;2022-07-23T12:38:03;99381.47;;;42.16;14.93
43488;BME280;29078;41.932;25.554;2022-07-23T12:40:33;99382.66;;;42.26;14.83
43488;BME280;29078;41.932;25.554;2022-07-23T12:43:04;99387.81;;;42.31;15.11
43488;BME280;29078;41.932;25.554;2022-07-23T12:46:08;99371.56;;;42.26;15.06
43488;BME280;29078;41.932;25.554;2022-07-23T12:48:50;99364.03;;;42.26;15.09
43488;BME280;29078;41.932;25.554;2022-07-23T12:51:29;99366.44;;;42.42;15.11
43488;BME280;29078;41.932;25.554;2022-07-23T12:54:05;99292.63;;;41.80;15.20
43488;BME280;29078;41.932;25.554;2022-07-23T12:56:33;99374.75;;;42.35;15.16
43488;BME280;29078;41.932;25.554;2022-07-23T12:59:16;99360.88;;;42.35;15.21
43488;BME280;29078;41.932;25.554;2022-07-23T13:01:53;99372.81;;;42.46;15.34
43488;BME280;29078;41.932;25.554;2022-07-23T13:04:21;99362.44;;;42.32;14.87
43488;BME280;29078;41.932;25.554;2022-07-23T13:06:49;99366.47;;;42.53;14.88
43488;BME280;29078;41.932;25.554;2022-07-23T13:09:17;99317.66;;;42.19;14.58
43488;BME280;29078;41.932;25.554;2022-07-23T13:11:44;99325.97;;;42.34;14.58
43488;BME280;29078;41.932;25.554;2022-07-23T13:14:11;99362.91;;;42.63;14.61
43488;BME280;29078;41.932;25.554;2022-07-23T13:16:38;99323.25;;;42.48;14.74
43488;BME280;29078;41.932;25.554;2022-07-23T13:19:04;99316.91;;;42.47;15.31
43488;BME280;29078;41.932;25.554;2022-07-23T13:21:30;99330.78;;;42.55;15.30
43488;BME280;29078;41.932;25.554;2022-07-23T13:23:56;99312.13;;;42.44;14.81